sensor_id;sensor_type;location;lat;lon;timestamp;P1;durP1;ratioP1;P2;durP2;ratioP2
16179;SDS011;8196;49.428;10.906;2022-08-03T00:01:26;5.93;;;3.30;;
16179;SDS011;8196;49.428;10.906;2022-08-03T00:03:53;3.50;;;3.20;;
16179;SDS011;8196;49.428;10.906;2022-08-03T00:06:20;3.47;;;3.17;;
16179;SDS011;8196;49.428;10.906;2022-08-03T00:08:48;3.60;;;3.30;;
16179;SDS011;8196;49.428;10.906;2022-08-03T00:11:15;4.13;;;3.53;;
16179;SDS011;8196;49.428;10.906;2022-08-03T00:13:42;3.92;;;3.25;;
16179;SDS011;8196;49.428;10.906;2022-08-03T00:16:09;4.87;;;3.53;;
16179;SDS011;8196;49.428;10.906;2022-08-03T00:18:36;6.28;;;3.78;;
16179;SDS011;8196;49.428;10.906;2022-08-03T00:21:03;3.70;;;3.30;;
16179;SDS011;8196;49.428;10.906;2022-08-03T00:23:30;3.90;;;3.40;;
16179;SDS011;8196;49.428;10.906;2022-08-03T00:26:18;3.60;;;3.22;;
16179;SDS011;8196;49.428;10.906;2022-08-03T00:28:46;5.28;;;3.20;;
16179;SDS011;8196;49.428;10.906;2022-08-03T00:31:13;3.83;;;3.42;;
16179;SDS011;8196;49.428;10.906;2022-08-03T00:33:40;3.53;;;3.22;;
16179;SDS011;8196;49.428;10.906;2022-08-03T00:36:24;4.13;;;3.20;;
16179;SDS011;8196;49.428;10.906;2022-08-03T00:38:52;3.60;;;3.30;;
16179;SDS011;8196;49.428;10.906;2022-08-03T00:41:19;3.70;;;3.40;;
16179;SDS011;8196;49.428;10.906;2022-08-03T00:43:46;3.78;;;3.47;;
16179;SDS011;8196;49.428;10.906;2022-08-03T00:46:13;4.13;;;3.28;;
16179;SDS011;8196;49.428;10.906;2022-08-03T00:48:47;3.65;;;3.35;;
16179;SDS011;8196;49.428;10.906;2022-08-03T00:51:14;3.75;;;3.40;;
16179;SDS011;8196;49.428;10.906;2022-08-03T00:53:41;4.18;;;3.78;;
16179;SDS011;8196;49.428;10.906;2022-08-03T00:56:11;3.40;;;3.10;;
16179;SDS011;8196;49.428;10.906;2022-08-03T00:58:39;4.00;;;3.50;;
16179;SDS011;8196;49.428;10.906;2022-08-03T01:01:07;4.18;;;3.78;;
16179;SDS011;8196;49.428;10.906;2022-08-03T01:03:34;4.03;;;3.63;;
16179;SDS011;8196;49.428;10.906;2022-08-03T01:11:23;4.30;;;3.40;;
16179;SDS011;8196;49.428;10.906;2022-08-03T01:16:43;4.68;;;3.92;;
16179;SDS011;8196;49.428;10.906;2022-08-03T01:19:23;4.05;;;3.65;;
16179;SDS011;8196;49.428;10.906;2022-08-03T01:24:31;3.80;;;3.40;;
16179;SDS011;8196;49.428;10.906;2022-08-03T01:32:18;4.13;;;3.75;;
16179;SDS011;8196;49.428;10.906;2022-08-03T01:35:08;4.97;;;3.73;;
16179;SDS011;8196;49.428;10.906;2022-08-03T01:37:38;4.10;;;3.67;;
16179;SDS011;8196;49.428;10.906;2022-08-03T01:40:06;4.30;;;3.90;;
16179;SDS011;8196;49.428;10.906;2022-08-03T01:42:35;4.18;;;3.70;;
16179;SDS011;8196;49.428;10.906;2022-08-03T01:45:03;4.20;;;3.75;;
16179;SDS011;8196;49.428;10.906;2022-08-03T01:47:30;4.32;;;4.00;;
16179;SDS011;8196;49.428;10.906;2022-08-03T01:49:58;5.05;;;3.92;;
16179;SDS011;8196;49.428;10.906;2022-08-03T01:52:27;4.95;;;4.13;;
16179;SDS011;8196;49.428;10.906;2022-08-03T01:54:56;4.00;;;3.70;;
16179;SDS011;8196;49.428;10.906;2022-08-03T01:57:24;4.20;;;3.80;;
16179;SDS011;8196;49.428;10.906;2022-08-03T01:59:54;4.53;;;3.97;;
16179;SDS011;8196;49.428;10.906;2022-08-03T02:02:21;4.37;;;3.97;;
16179;SDS011;8196;49.428;10.906;2022-08-03T02:04:59;4.25;;;3.85;;
16179;SDS011;8196;49.428;10.906;2022-08-03T02:07:26;4.88;;;3.95;;
16179;SDS011;8196;49.428;10.906;2022-08-03T02:12:23;5.18;;;3.95;;
16179;SDS011;8196;49.428;10.906;2022-08-03T02:14:50;4.63;;;3.92;;
16179;SDS011;8196;49.428;10.906;2022-08-03T02:17:18;3.97;;;3.63;;
16179;SDS011;8196;49.428;10.906;2022-08-03T02:20:05;3.90;;;3.60;;
16179;SDS011;8196;49.428;10.906;2022-08-03T02:22:33;4.20;;;3.80;;
16179;SDS011;8196;49.428;10.906;2022-08-03T02:25:00;4.40;;;4.03;;
16179;SDS011;8196;49.428;10.906;2022-08-03T02:27:28;3.93;;;3.60;;
16179;SDS011;8196;49.428;10.906;2022-08-03T02:29:58;4.22;;;3.83;;
16179;SDS011;8196;49.428;10.906;2022-08-03T02:32:29;3.88;;;3.58;;
16179;SDS011;8196;49.428;10.906;2022-08-03T02:34:57;4.33;;;3.93;;
16179;SDS011;8196;49.428;10.906;2022-08-03T02:37:26;4.50;;;3.80;;
16179;SDS011;8196;49.428;10.906;2022-08-03T02:39:57;4.45;;;4.05;;
16179;SDS011;8196;49.428;10.906;2022-08-03T02:42:25;4.50;;;3.90;;
16179;SDS011;8196;49.428;10.906;2022-08-03T02:44:53;4.07;;;3.70;;
16179;SDS011;8196;49.428;10.906;2022-08-03T02:47:21;4.43;;;3.73;;
16179;SDS011;8196;49.428;10.906;2022-08-03T02:49:49;4.75;;;4.07;;
16179;SDS011;8196;49.428;10.906;2022-08-03T02:52:19;3.90;;;3.47;;
16179;SDS011;8196;49.428;10.906;2022-08-03T02:54:47;4.35;;;3.95;;
16179;SDS011;8196;49.428;10.906;2022-08-03T02:57:15;4.00;;;3.70;;
16179;SDS011;8196;49.428;10.906;2022-08-03T02:59:44;4.47;;;3.95;;
16179;SDS011;8196;49.428;10.906;2022-08-03T03:02:11;4.50;;;4.10;;
16179;SDS011;8196;49.428;10.906;2022-08-03T03:04:41;5.55;;;4.20;;
16179;SDS011;8196;49.428;10.906;2022-08-03T03:07:28;4.20;;;3.80;;
16179;SDS011;8196;49.428;10.906;2022-08-03T03:10:05;4.65;;;4.13;;
16179;SDS011;8196;49.428;10.906;2022-08-03T03:12:33;4.60;;;4.20;;
16179;SDS011;8196;49.428;10.906;2022-08-03T03:15:02;4.13;;;3.80;;
16179;SDS011;8196;49.428;10.906;2022-08-03T03:17:31;4.53;;;4.00;;
16179;SDS011;8196;49.428;10.906;2022-08-03T03:19:59;4.45;;;4.00;;
16179;SDS011;8196;49.428;10.906;2022-08-03T03:22:27;4.43;;;4.03;;
16179;SDS011;8196;49.428;10.906;2022-08-03T03:24:56;5.80;;;4.30;;
16179;SDS011;8196;49.428;10.906;2022-08-03T03:27:23;4.43;;;3.88;;
16179;SDS011;8196;49.428;10.906;2022-08-03T03:29:52;4.47;;;4.07;;
16179;SDS011;8196;49.428;10.906;2022-08-03T03:32:19;4.55;;;4.10;;
16179;SDS011;8196;49.428;10.906;2022-08-03T03:34:46;5.03;;;4.05;;
16179;SDS011;8196;49.428;10.906;2022-08-03T03:37:13;4.15;;;3.75;;
16179;SDS011;8196;49.428;10.906;2022-08-03T03:39:40;4.57;;;4.18;;
16179;SDS011;8196;49.428;10.906;2022-08-03T03:42:07;5.07;;;4.35;;
16179;SDS011;8196;49.428;10.906;2022-08-03T03:44:34;4.50;;;4.20;;
16179;SDS011;8196;49.428;10.906;2022-08-03T03:47:00;4.50;;;3.85;;
16179;SDS011;8196;49.428;10.906;2022-08-03T03:49:28;5.47;;;4.13;;
16179;SDS011;8196;49.428;10.906;2022-08-03T03:51:56;5.05;;;4.55;;
16179;SDS011;8196;49.428;10.906;2022-08-03T03:54:23;4.50;;;4.10;;
16179;SDS011;8196;49.428;10.906;2022-08-03T03:56:54;5.10;;;4.60;;
16179;SDS011;8196;49.428;10.906;2022-08-03T03:59:21;4.97;;;4.07;;
16179;SDS011;8196;49.428;10.906;2022-08-03T04:01:48;5.25;;;4.30;;
16179;SDS011;8196;49.428;10.906;2022-08-03T04:04:24;4.43;;;4.03;;
16179;SDS011;8196;49.428;10.906;2022-08-03T04:06:51;4.40;;;4.00;;
16179;SDS011;8196;49.428;10.906;2022-08-03T04:09:37;4.93;;;4.53;;
16179;SDS011;8196;49.428;10.906;2022-08-03T04:12:39;6.35;;;4.53;;
16179;SDS011;8196;49.428;10.906;2022-08-03T04:15:16;4.80;;;4.40;;
16179;SDS011;8196;49.428;10.906;2022-08-03T04:17:45;5.75;;;5.00;;
16179;SDS011;8196;49.428;10.906;2022-08-03T04:20:15;4.80;;;4.40;;
16179;SDS011;8196;49.428;10.906;2022-08-03T04:22:46;6.13;;;4.95;;
16179;SDS011;8196;49.428;10.906;2022-08-03T04:25:17;5.60;;;5.10;;
16179;SDS011;8196;49.428;10.906;2022-08-03T04:27:46;5.40;;;4.90;;
16179;SDS011;8196;49.428;10.906;2022-08-03T04:30:35;5.25;;;4.75;;
16179;SDS011;8196;49.428;10.906;2022-08-03T04:33:04;5.63;;;5.13;;
16179;SDS011;8196;49.428;10.906;2022-08-03T04:35:33;5.30;;;4.90;;
16179;SDS011;8196;49.428;10.906;2022-08-03T04:38:21;5.50;;;4.70;;
16179;SDS011;8196;49.428;10.906;2022-08-03T04:40:50;5.47;;;4.85;;
16179;SDS011;8196;49.428;10.906;2022-08-03T04:43:19;5.20;;;4.80;;
16179;SDS011;8196;49.428;10.906;2022-08-03T04:45:47;5.72;;;5.13;;
16179;SDS011;8196;49.428;10.906;2022-08-03T04:48:15;5.20;;;4.70;;
16179;SDS011;8196;49.428;10.906;2022-08-03T04:50:42;5.20;;;4.80;;
16179;SDS011;8196;49.428;10.906;2022-08-03T04:53:09;5.03;;;4.63;;
16179;SDS011;8196;49.428;10.906;2022-08-03T04:55:36;5.93;;;5.00;;
16179;SDS011;8196;49.428;10.906;2022-08-03T04:58:03;8.90;;;5.50;;
16179;SDS011;8196;49.428;10.906;2022-08-03T05:00:31;7.82;;;5.47;;
16179;SDS011;8196;49.428;10.906;2022-08-03T05:02:58;10.48;;;5.57;;
16179;SDS011;8196;49.428;10.906;2022-08-03T05:05:25;6.55;;;5.00;;
16179;SDS011;8196;49.428;10.906;2022-08-03T05:08:12;5.57;;;4.82;;
16179;SDS011;8196;49.428;10.906;2022-08-03T05:10:39;5.95;;;5.10;;
16179;SDS011;8196;49.428;10.906;2022-08-03T05:13:05;6.38;;;4.90;;
16179;SDS011;8196;49.428;10.906;2022-08-03T05:15:37;5.45;;;4.95;;
16179;SDS011;8196;49.428;10.906;2022-08-03T05:18:08;5.68;;;5.10;;
16179;SDS011;8196;49.428;10.906;2022-08-03T05:20:39;5.20;;;4.70;;
16179;SDS011;8196;49.428;10.906;2022-08-03T05:23:06;7.77;;;4.73;;
16179;SDS011;8196;49.428;10.906;2022-08-03T05:25:33;5.93;;;4.60;;
16179;SDS011;8196;49.428;10.906;2022-08-03T05:28:00;5.45;;;4.57;;
16179;SDS011;8196;49.428;10.906;2022-08-03T05:30:26;4.60;;;4.20;;
16179;SDS011;8196;49.428;10.906;2022-08-03T05:32:59;5.45;;;3.90;;
16179;SDS011;8196;49.428;10.906;2022-08-03T05:35:27;6.85;;;4.00;;
16179;SDS011;8196;49.428;10.906;2022-08-03T05:38:14;4.60;;;4.20;;
16179;SDS011;8196;49.428;10.906;2022-08-03T05:40:53;4.53;;;4.13;;
16179;SDS011;8196;49.428;10.906;2022-08-03T05:43:39;5.22;;;4.32;;
16179;SDS011;8196;49.428;10.906;2022-08-03T05:46:06;4.70;;;4.20;;
16179;SDS011;8196;49.428;10.906;2022-08-03T05:48:37;4.88;;;4.03;;
16179;SDS011;8196;49.428;10.906;2022-08-03T05:51:04;5.57;;;3.90;;
16179;SDS011;8196;49.428;10.906;2022-08-03T05:53:36;4.45;;;3.83;;
16179;SDS011;8196;49.428;10.906;2022-08-03T05:56:03;4.40;;;4.00;;
16179;SDS011;8196;49.428;10.906;2022-08-03T05:58:42;4.18;;;3.78;;
16179;SDS011;8196;49.428;10.906;2022-08-03T06:01:09;4.90;;;3.78;;
16179;SDS011;8196;49.428;10.906;2022-08-03T06:03:37;5.93;;;4.20;;
16179;SDS011;8196;49.428;10.906;2022-08-03T06:06:04;4.60;;;4.20;;
16179;SDS011;8196;49.428;10.906;2022-08-03T06:08:31;4.97;;;4.05;;
16179;SDS011;8196;49.428;10.906;2022-08-03T06:10:58;4.27;;;3.90;;
16179;SDS011;8196;49.428;10.906;2022-08-03T06:13:25;4.40;;;4.00;;
16179;SDS011;8196;49.428;10.906;2022-08-03T06:15:53;4.65;;;4.25;;
16179;SDS011;8196;49.428;10.906;2022-08-03T06:18:20;4.37;;;3.80;;
16179;SDS011;8196;49.428;10.906;2022-08-03T06:20:49;10.68;;;4.70;;
16179;SDS011;8196;49.428;10.906;2022-08-03T06:23:17;5.30;;;4.45;;
16179;SDS011;8196;49.428;10.906;2022-08-03T06:25:45;5.10;;;4.35;;
16179;SDS011;8196;49.428;10.906;2022-08-03T06:28:12;4.70;;;4.22;;
16179;SDS011;8196;49.428;10.906;2022-08-03T06:31:00;5.32;;;4.70;;
16179;SDS011;8196;49.428;10.906;2022-08-03T06:33:27;5.78;;;4.60;;
16179;SDS011;8196;49.428;10.906;2022-08-03T06:36:14;5.53;;;4.50;;
16179;SDS011;8196;49.428;10.906;2022-08-03T06:38:42;4.90;;;4.30;;
16179;SDS011;8196;49.428;10.906;2022-08-03T06:41:09;5.20;;;4.70;;
16179;SDS011;8196;49.428;10.906;2022-08-03T06:43:36;5.47;;;4.30;;
16179;SDS011;8196;49.428;10.906;2022-08-03T06:46:23;7.60;;;4.60;;
16179;SDS011;8196;49.428;10.906;2022-08-03T06:48:51;5.03;;;4.38;;
16179;SDS011;8196;49.428;10.906;2022-08-03T06:51:19;6.25;;;4.18;;
16179;SDS011;8196;49.428;10.906;2022-08-03T06:54:06;4.50;;;4.10;;
16179;SDS011;8196;49.428;10.906;2022-08-03T06:56:33;4.32;;;3.92;;
16179;SDS011;8196;49.428;10.906;2022-08-03T06:59:00;4.82;;;3.80;;
16179;SDS011;8196;49.428;10.906;2022-08-03T07:01:27;4.70;;;3.72;;
16179;SDS011;8196;49.428;10.906;2022-08-03T07:03:54;3.88;;;3.45;;
16179;SDS011;8196;49.428;10.906;2022-08-03T07:06:21;3.70;;;3.40;;
16179;SDS011;8196;49.428;10.906;2022-08-03T07:08:49;4.20;;;3.28;;
16179;SDS011;8196;49.428;10.906;2022-08-03T07:11:20;3.90;;;3.15;;
16179;SDS011;8196;49.428;10.906;2022-08-03T07:13:47;4.03;;;3.20;;
16179;SDS011;8196;49.428;10.906;2022-08-03T07:16:15;5.15;;;3.75;;
16179;SDS011;8196;49.428;10.906;2022-08-03T07:18:42;5.43;;;3.28;;
16179;SDS011;8196;49.428;10.906;2022-08-03T07:21:10;4.90;;;3.30;;
16179;SDS011;8196;49.428;10.906;2022-08-03T07:23:37;4.53;;;3.33;;
16179;SDS011;8196;49.428;10.906;2022-08-03T07:26:05;3.50;;;3.20;;
16179;SDS011;8196;49.428;10.906;2022-08-03T07:28:32;4.85;;;3.13;;
16179;SDS011;8196;49.428;10.906;2022-08-03T07:30:59;7.55;;;3.40;;
16179;SDS011;8196;49.428;10.906;2022-08-03T07:33:26;3.90;;;3.28;;
16179;SDS011;8196;49.428;10.906;2022-08-03T07:35:53;3.50;;;3.20;;
16179;SDS011;8196;49.428;10.906;2022-08-03T07:38:20;3.13;;;2.90;;
16179;SDS011;8196;49.428;10.906;2022-08-03T07:40:48;5.20;;;3.42;;
16179;SDS011;8196;49.428;10.906;2022-08-03T07:43:15;4.35;;;2.85;;
16179;SDS011;8196;49.428;10.906;2022-08-03T07:45:42;4.63;;;3.30;;
16179;SDS011;8196;49.428;10.906;2022-08-03T07:48:09;3.22;;;2.92;;
16179;SDS011;8196;49.428;10.906;2022-08-03T07:50:37;4.78;;;3.22;;
16179;SDS011;8196;49.428;10.906;2022-08-03T07:53:05;4.43;;;2.90;;
16179;SDS011;8196;49.428;10.906;2022-08-03T07:55:32;3.20;;;2.90;;
16179;SDS011;8196;49.428;10.906;2022-08-03T07:58:02;3.40;;;2.70;;
16179;SDS011;8196;49.428;10.906;2022-08-03T08:00:29;4.53;;;3.10;;
16179;SDS011;8196;49.428;10.906;2022-08-03T08:02:57;3.40;;;3.10;;
16179;SDS011;8196;49.428;10.906;2022-08-03T08:05:24;3.70;;;2.63;;
16179;SDS011;8196;49.428;10.906;2022-08-03T08:07:52;5.50;;;2.80;;
16179;SDS011;8196;49.428;10.906;2022-08-03T08:10:19;3.10;;;2.80;;
16179;SDS011;8196;49.428;10.906;2022-08-03T08:12:46;4.43;;;2.60;;
16179;SDS011;8196;49.428;10.906;2022-08-03T08:15:13;3.63;;;2.80;;
16179;SDS011;8196;49.428;10.906;2022-08-03T08:17:44;3.03;;;2.60;;
16179;SDS011;8196;49.428;10.906;2022-08-03T08:20:14;5.50;;;2.60;;
16179;SDS011;8196;49.428;10.906;2022-08-03T08:22:53;5.13;;;3.25;;
16179;SDS011;8196;49.428;10.906;2022-08-03T08:25:22;3.83;;;2.90;;
16179;SDS011;8196;49.428;10.906;2022-08-03T08:27:49;3.15;;;2.65;;
16179;SDS011;8196;49.428;10.906;2022-08-03T08:30:36;3.45;;;2.92;;
16179;SDS011;8196;49.428;10.906;2022-08-03T08:33:03;2.80;;;2.60;;
16179;SDS011;8196;49.428;10.906;2022-08-03T08:35:31;3.40;;;2.63;;
16179;SDS011;8196;49.428;10.906;2022-08-03T08:37:59;2.83;;;2.50;;
16179;SDS011;8196;49.428;10.906;2022-08-03T08:40:31;3.30;;;2.80;;
16179;SDS011;8196;49.428;10.906;2022-08-03T08:42:58;3.13;;;2.83;;
16179;SDS011;8196;49.428;10.906;2022-08-03T08:45:25;2.83;;;2.40;;
16179;SDS011;8196;49.428;10.906;2022-08-03T08:47:54;2.95;;;2.50;;
16179;SDS011;8196;49.428;10.906;2022-08-03T08:50:28;3.60;;;2.50;;
16179;SDS011;8196;49.428;10.906;2022-08-03T08:52:55;5.03;;;2.83;;
16179;SDS011;8196;49.428;10.906;2022-08-03T08:55:26;5.05;;;2.72;;
16179;SDS011;8196;49.428;10.906;2022-08-03T08:57:56;3.67;;;2.78;;
16179;SDS011;8196;49.428;10.906;2022-08-03T09:00:24;4.47;;;2.50;;
16179;SDS011;8196;49.428;10.906;2022-08-03T09:02:51;2.50;;;2.30;;
16179;SDS011;8196;49.428;10.906;2022-08-03T09:05:19;3.45;;;2.30;;
16179;SDS011;8196;49.428;10.906;2022-08-03T09:08:06;2.42;;;2.22;;
16179;SDS011;8196;49.428;10.906;2022-08-03T09:10:33;2.50;;;2.30;;
16179;SDS011;8196;49.428;10.906;2022-08-03T09:13:01;3.75;;;2.30;;
16179;SDS011;8196;49.428;10.906;2022-08-03T09:15:29;2.90;;;2.30;;
16179;SDS011;8196;49.428;10.906;2022-08-03T09:17:58;2.83;;;2.13;;
16179;SDS011;8196;49.428;10.906;2022-08-03T09:20:26;3.17;;;2.33;;
16179;SDS011;8196;49.428;10.906;2022-08-03T09:27:54;2.40;;;2.20;;
16179;SDS011;8196;49.428;10.906;2022-08-03T09:30:21;3.10;;;2.20;;
16179;SDS011;8196;49.428;10.906;2022-08-03T09:33:00;2.60;;;1.90;;
16179;SDS011;8196;49.428;10.906;2022-08-03T09:35:28;2.47;;;2.15;;
16179;SDS011;8196;49.428;10.906;2022-08-03T09:38:16;2.30;;;2.10;;
16179;SDS011;8196;49.428;10.906;2022-08-03T09:40:44;2.45;;;2.17;;
16179;SDS011;8196;49.428;10.906;2022-08-03T09:43:15;2.55;;;2.30;;
16179;SDS011;8196;49.428;10.906;2022-08-03T09:45:42;2.30;;;2.10;;
16179;SDS011;8196;49.428;10.906;2022-08-03T09:50:55;2.60;;;2.40;;
16179;SDS011;8196;49.428;10.906;2022-08-03T09:53:43;2.72;;;2.22;;
16179;SDS011;8196;49.428;10.906;2022-08-03T09:56:24;3.00;;;2.25;;
16179;SDS011;8196;49.428;10.906;2022-08-03T09:59:03;2.53;;;2.10;;
16179;SDS011;8196;49.428;10.906;2022-08-03T10:01:32;2.35;;;2.17;;
16179;SDS011;8196;49.428;10.906;2022-08-03T10:04:00;2.97;;;2.30;;
16179;SDS011;8196;49.428;10.906;2022-08-03T10:06:29;2.20;;;2.00;;
16179;SDS011;8196;49.428;10.906;2022-08-03T10:11:32;2.50;;;2.30;;
16179;SDS011;8196;49.428;10.906;2022-08-03T10:14:08;2.63;;;2.42;;
16179;SDS011;8196;49.428;10.906;2022-08-03T10:16:37;2.80;;;2.20;;
16179;SDS011;8196;49.428;10.906;2022-08-03T10:19:05;3.55;;;2.40;;
16179;SDS011;8196;49.428;10.906;2022-08-03T10:21:34;2.45;;;2.30;;
16179;SDS011;8196;49.428;10.906;2022-08-03T10:24:02;2.53;;;2.33;;
16179;SDS011;8196;49.428;10.906;2022-08-03T10:26:32;2.17;;;2.08;;
16179;SDS011;8196;49.428;10.906;2022-08-03T10:29:01;2.40;;;2.20;;
16179;SDS011;8196;49.428;10.906;2022-08-03T10:31:32;2.40;;;2.20;;
16179;SDS011;8196;49.428;10.906;2022-08-03T10:34:00;3.50;;;2.50;;
16179;SDS011;8196;49.428;10.906;2022-08-03T10:36:29;3.17;;;2.15;;
16179;SDS011;8196;49.428;10.906;2022-08-03T10:38:57;2.93;;;2.37;;
16179;SDS011;8196;49.428;10.906;2022-08-03T10:41:25;2.30;;;2.10;;
16179;SDS011;8196;49.428;10.906;2022-08-03T10:43:57;2.58;;;2.38;;
16179;SDS011;8196;49.428;10.906;2022-08-03T10:46:24;2.38;;;1.92;;
16179;SDS011;8196;49.428;10.906;2022-08-03T10:48:52;2.50;;;2.23;;
16179;SDS011;8196;49.428;10.906;2022-08-03T10:51:19;5.65;;;4.20;;
16179;SDS011;8196;49.428;10.906;2022-08-03T10:53:47;3.55;;;3.22;;
16179;SDS011;8196;49.428;10.906;2022-08-03T11:02:10;3.20;;;2.90;;
16179;SDS011;8196;49.428;10.906;2022-08-03T11:04:39;2.45;;;2.30;;
16179;SDS011;8196;49.428;10.906;2022-08-03T11:07:23;2.38;;;2.20;;
16179;SDS011;8196;49.428;10.906;2022-08-03T11:09:52;2.60;;;2.20;;
16179;SDS011;8196;49.428;10.906;2022-08-03T11:12:27;4.38;;;2.20;;
16179;SDS011;8196;49.428;10.906;2022-08-03T11:14:58;2.20;;;2.10;;
16179;SDS011;8196;49.428;10.906;2022-08-03T11:17:26;2.25;;;2.05;;
16179;SDS011;8196;49.428;10.906;2022-08-03T11:19:53;2.10;;;2.00;;
16179;SDS011;8196;49.428;10.906;2022-08-03T11:22:23;2.10;;;2.00;;
16179;SDS011;8196;49.428;10.906;2022-08-03T11:27:19;2.53;;;2.10;;
16179;SDS011;8196;49.428;10.906;2022-08-03T11:35:14;2.17;;;1.97;;
16179;SDS011;8196;49.428;10.906;2022-08-03T11:40:46;2.17;;;2.08;;
16179;SDS011;8196;49.428;10.906;2022-08-03T11:46:09;2.00;;;1.80;;
16179;SDS011;8196;49.428;10.906;2022-08-03T11:48:55;1.92;;;1.83;;
16179;SDS011;8196;49.428;10.906;2022-08-03T11:51:35;2.53;;;2.00;;
16179;SDS011;8196;49.428;10.906;2022-08-03T11:54:04;2.70;;;2.30;;
16179;SDS011;8196;49.428;10.906;2022-08-03T11:56:48;2.65;;;2.38;;
16179;SDS011;8196;49.428;10.906;2022-08-03T11:59:15;2.53;;;2.30;;
16179;SDS011;8196;49.428;10.906;2022-08-03T12:01:47;2.45;;;2.30;;
16179;SDS011;8196;49.428;10.906;2022-08-03T12:04:15;2.30;;;2.20;;
16179;SDS011;8196;49.428;10.906;2022-08-03T12:06:56;2.15;;;2.05;;
16179;SDS011;8196;49.428;10.906;2022-08-03T12:09:24;2.40;;;2.22;;
16179;SDS011;8196;49.428;10.906;2022-08-03T12:11:51;2.15;;;2.05;;
16179;SDS011;8196;49.428;10.906;2022-08-03T12:14:25;2.20;;;2.00;;
16179;SDS011;8196;49.428;10.906;2022-08-03T12:17:13;2.10;;;2.00;;
16179;SDS011;8196;49.428;10.906;2022-08-03T12:19:41;2.40;;;2.20;;
16179;SDS011;8196;49.428;10.906;2022-08-03T12:22:08;2.10;;;2.00;;
16179;SDS011;8196;49.428;10.906;2022-08-03T12:24:39;2.10;;;2.00;;
16179;SDS011;8196;49.428;10.906;2022-08-03T12:27:07;2.40;;;2.30;;
16179;SDS011;8196;49.428;10.906;2022-08-03T12:29:34;2.50;;;2.40;;
16179;SDS011;8196;49.428;10.906;2022-08-03T12:32:02;2.50;;;2.30;;
16179;SDS011;8196;49.428;10.906;2022-08-03T12:34:45;2.80;;;2.60;;
16179;SDS011;8196;49.428;10.906;2022-08-03T12:37:13;2.85;;;2.70;;
16179;SDS011;8196;49.428;10.906;2022-08-03T12:39:49;2.92;;;2.70;;
16179;SDS011;8196;49.428;10.906;2022-08-03T12:44:57;3.17;;;2.83;;
16179;SDS011;8196;49.428;10.906;2022-08-03T12:47:25;3.20;;;3.00;;
16179;SDS011;8196;49.428;10.906;2022-08-03T12:49:52;3.88;;;3.00;;
16179;SDS011;8196;49.428;10.906;2022-08-03T12:52:20;2.67;;;2.40;;
16179;SDS011;8196;49.428;10.906;2022-08-03T12:54:56;2.20;;;2.08;;
16179;SDS011;8196;49.428;10.906;2022-08-03T12:57:23;2.38;;;2.17;;
16179;SDS011;8196;49.428;10.906;2022-08-03T12:59:50;2.28;;;2.08;;
16179;SDS011;8196;49.428;10.906;2022-08-03T13:02:22;2.20;;;2.10;;
16179;SDS011;8196;49.428;10.906;2022-08-03T13:04:50;2.30;;;2.10;;
16179;SDS011;8196;49.428;10.906;2022-08-03T13:07:19;2.38;;;2.17;;
16179;SDS011;8196;49.428;10.906;2022-08-03T13:09:47;2.37;;;2.20;;
16179;SDS011;8196;49.428;10.906;2022-08-03T13:12:17;2.80;;;2.10;;
16179;SDS011;8196;49.428;10.906;2022-08-03T13:14:47;2.55;;;2.05;;
16179;SDS011;8196;49.428;10.906;2022-08-03T13:17:14;2.25;;;2.03;;
16179;SDS011;8196;49.428;10.906;2022-08-03T13:19:42;2.47;;;2.10;;
16179;SDS011;8196;49.428;10.906;2022-08-03T13:22:14;2.58;;;2.47;;
16179;SDS011;8196;49.428;10.906;2022-08-03T13:24:41;2.70;;;2.50;;
16179;SDS011;8196;49.428;10.906;2022-08-03T13:27:09;2.70;;;2.60;;
16179;SDS011;8196;49.428;10.906;2022-08-03T13:29:57;2.67;;;2.55;;
16179;SDS011;8196;49.428;10.906;2022-08-03T13:32:24;2.50;;;2.40;;
16179;SDS011;8196;49.428;10.906;2022-08-03T13:34:51;3.30;;;3.10;;
16179;SDS011;8196;49.428;10.906;2022-08-03T13:37:19;2.80;;;2.70;;
16179;SDS011;8196;49.428;10.906;2022-08-03T13:39:47;2.80;;;2.70;;
16179;SDS011;8196;49.428;10.906;2022-08-03T13:42:26;2.60;;;2.50;;
16179;SDS011;8196;49.428;10.906;2022-08-03T13:44:53;2.23;;;2.13;;
16179;SDS011;8196;49.428;10.906;2022-08-03T13:47:21;2.35;;;2.17;;
16179;SDS011;8196;49.428;10.906;2022-08-03T13:49:48;2.10;;;2.00;;
16179;SDS011;8196;49.428;10.906;2022-08-03T13:52:27;1.95;;;1.85;;
16179;SDS011;8196;49.428;10.906;2022-08-03T13:54:54;2.10;;;2.00;;
16179;SDS011;8196;49.428;10.906;2022-08-03T13:57:21;1.95;;;1.85;;
16179;SDS011;8196;49.428;10.906;2022-08-03T14:00:08;2.30;;;2.20;;
16179;SDS011;8196;49.428;10.906;2022-08-03T14:02:36;3.30;;;2.05;;
16179;SDS011;8196;49.428;10.906;2022-08-03T14:05:03;2.00;;;1.90;;
16179;SDS011;8196;49.428;10.906;2022-08-03T14:07:30;2.33;;;2.22;;
16179;SDS011;8196;49.428;10.906;2022-08-03T14:09:58;2.40;;;2.20;;
16179;SDS011;8196;49.428;10.906;2022-08-03T14:12:26;2.45;;;2.25;;
16179;SDS011;8196;49.428;10.906;2022-08-03T14:14:54;2.60;;;2.40;;
16179;SDS011;8196;49.428;10.906;2022-08-03T14:17:26;2.30;;;2.20;;
16179;SDS011;8196;49.428;10.906;2022-08-03T14:20:07;2.80;;;2.60;;
16179;SDS011;8196;49.428;10.906;2022-08-03T14:22:55;2.88;;;2.70;;
16179;SDS011;8196;49.428;10.906;2022-08-03T14:25:22;2.83;;;2.63;;
16179;SDS011;8196;49.428;10.906;2022-08-03T14:27:49;2.85;;;2.35;;
16179;SDS011;8196;49.428;10.906;2022-08-03T14:30:16;2.40;;;2.20;;
16179;SDS011;8196;49.428;10.906;2022-08-03T14:32:43;2.40;;;2.30;;
16179;SDS011;8196;49.428;10.906;2022-08-03T14:35:11;2.20;;;2.10;;
16179;SDS011;8196;49.428;10.906;2022-08-03T14:37:38;2.67;;;2.47;;
16179;SDS011;8196;49.428;10.906;2022-08-03T14:40:06;2.20;;;2.10;;
16179;SDS011;8196;49.428;10.906;2022-08-03T14:42:33;2.10;;;2.00;;
16179;SDS011;8196;49.428;10.906;2022-08-03T14:45:00;2.38;;;2.20;;
16179;SDS011;8196;49.428;10.906;2022-08-03T14:47:34;2.13;;;2.03;;
16179;SDS011;8196;49.428;10.906;2022-08-03T14:50:21;2.30;;;2.10;;
16179;SDS011;8196;49.428;10.906;2022-08-03T14:53:05;2.10;;;2.00;;
16179;SDS011;8196;49.428;10.906;2022-08-03T14:55:33;2.20;;;2.10;;
16179;SDS011;8196;49.428;10.906;2022-08-03T14:58:15;2.20;;;2.10;;
16179;SDS011;8196;49.428;10.906;2022-08-03T15:00:47;2.40;;;2.30;;
16179;SDS011;8196;49.428;10.906;2022-08-03T15:03:14;2.40;;;2.20;;
16179;SDS011;8196;49.428;10.906;2022-08-03T15:05:42;2.60;;;2.20;;
16179;SDS011;8196;49.428;10.906;2022-08-03T15:08:10;2.42;;;2.20;;
16179;SDS011;8196;49.428;10.906;2022-08-03T15:10:37;2.20;;;2.10;;
16179;SDS011;8196;49.428;10.906;2022-08-03T15:13:09;2.10;;;2.00;;
16179;SDS011;8196;49.428;10.906;2022-08-03T15:15:37;2.10;;;2.00;;
16179;SDS011;8196;49.428;10.906;2022-08-03T15:18:04;1.98;;;1.88;;
16179;SDS011;8196;49.428;10.906;2022-08-03T15:20:31;1.80;;;1.70;;
16179;SDS011;8196;49.428;10.906;2022-08-03T15:23:10;2.35;;;1.80;;
16179;SDS011;8196;49.428;10.906;2022-08-03T15:25:38;2.05;;;1.95;;
16179;SDS011;8196;49.428;10.906;2022-08-03T15:28:25;2.60;;;2.00;;
16179;SDS011;8196;49.428;10.906;2022-08-03T15:30:52;2.00;;;1.90;;
16179;SDS011;8196;49.428;10.906;2022-08-03T15:33:19;2.00;;;1.90;;
16179;SDS011;8196;49.428;10.906;2022-08-03T15:35:47;2.30;;;2.20;;
16179;SDS011;8196;49.428;10.906;2022-08-03T15:38:15;2.22;;;1.90;;
16179;SDS011;8196;49.428;10.906;2022-08-03T15:40:42;2.05;;;1.90;;
16179;SDS011;8196;49.428;10.906;2022-08-03T15:43:09;2.00;;;1.90;;
16179;SDS011;8196;49.428;10.906;2022-08-03T15:45:36;2.10;;;2.00;;
16179;SDS011;8196;49.428;10.906;2022-08-03T15:48:07;2.63;;;2.10;;
16179;SDS011;8196;49.428;10.906;2022-08-03T15:50:34;2.80;;;2.30;;
16179;SDS011;8196;49.428;10.906;2022-08-03T15:53:01;1.92;;;1.83;;
16179;SDS011;8196;49.428;10.906;2022-08-03T15:55:28;1.98;;;1.88;;
16179;SDS011;8196;49.428;10.906;2022-08-03T15:57:56;2.38;;;1.90;;